createdAt,value
2019-04-22T00:00:55.931Z,73.50
2019-04-22T00:03:33.942Z,73.30
2019-04-22T00:06:12.940Z,73.00
2019-04-22T00:08:54.228Z,72.90
2019-04-22T00:11:25.383Z,72.40
2019-04-22T00:13:53.861Z,72.30
2019-04-22T00:16:27.948Z,72.10
2019-04-22T00:21:25.796Z,72.10
2019-04-22T00:23:53.935Z,72.30
2019-04-22T00:26:25.506Z,72.30
2019-04-22T00:31:20.987Z,71.90
2019-04-22T00:33:53.234Z,71.70
2019-04-22T00:36:24.008Z,71.70
2019-04-22T00:39:00.229Z,71.40
2019-04-22T00:41:29.682Z,71.10
2019-04-22T00:43:58.204Z,71.10
2019-04-22T00:46:25.165Z,70.60
2019-04-22T00:49:51.081Z,70.60
2019-04-22T00:51:28.754Z,70.70
2019-04-22T00:53:57.504Z,70.30
2019-04-22T00:56:22.100Z,69.90
2019-04-22T00:58:56.579Z,69.60
2019-04-22T01:01:23.702Z,69.10
2019-04-22T01:04:04.242Z,69.30
2019-04-22T01:06:27.355Z,69.40
2019-04-22T01:09:04.608Z,69.30
2019-04-22T01:11:29.478Z,68.80
2019-04-22T01:14:00.167Z,68.80
2019-04-22T01:16:30.482Z,68.30
2019-04-22T01:19:00.486Z,67.70
2019-04-22T01:21:38.574Z,67.60
2019-04-22T01:23:59.802Z,66.90
2019-04-22T01:26:25.328Z,66.60
2019-04-22T01:28:53.470Z,66.70
2019-04-22T01:31:19.172Z,66.60
2019-04-22T01:33:48.376Z,66.80
2019-04-22T01:36:31.590Z,66.80
2019-04-22T01:39:07.203Z,66.90
2019-04-22T01:41:44.814Z,67.00
2019-04-22T01:44:14.374Z,67.10
2019-04-22T01:49:08.206Z,67.90
2019-04-22T01:51:52.478Z,68.10
2019-04-22T01:54:16.616Z,68.80
2019-04-22T01:56:40.819Z,69.50
2019-04-22T01:58:58.938Z,70.20
2019-04-22T02:01:48.089Z,70.90
2019-04-22T02:04:10.192Z,71.20
2019-04-22T02:06:46.274Z,71.20
2019-04-22T02:09:20.387Z,71.50
2019-04-22T02:11:45.541Z,71.40
2019-04-22T02:14:11.920Z,71.20
2019-04-22T02:16:44.308Z,71.40
2019-04-22T02:19:20.746Z,71.70
2019-04-22T02:21:44.014Z,72.00
2019-04-22T02:24:12.119Z,72.40
2019-04-22T02:26:40.260Z,72.60
2019-04-22T02:29:20.750Z,73.20
2019-04-22T02:36:43.033Z,74.10
2019-04-22T02:42:03.254Z,73.50
2019-04-22T02:47:10.030Z,73.80
2019-04-22T02:51:36.996Z,73.80
2019-04-22T03:02:19.041Z,73.20
2019-04-22T03:04:43.795Z,73.00
2019-04-22T03:07:18.778Z,72.90
2019-04-22T03:09:47.751Z,73.30
2019-04-22T03:12:35.225Z,73.30
2019-04-22T03:17:25.338Z,73.60
2019-04-22T03:20:02.605Z,73.60
2019-04-22T03:22:24.086Z,74.20
2019-04-22T03:25:06.120Z,74.50
2019-04-22T03:27:16.766Z,74.60
2019-04-22T03:30:26.620Z,74.90
2019-04-22T03:35:31.093Z,75.20
2019-04-22T03:40:18.301Z,75.70
2019-04-22T03:45:00.351Z,76.40
2019-04-22T03:52:20.429Z,77.30
2019-04-22T03:55:07.420Z,77.50
2019-04-22T04:00:17.804Z,77.90
2019-04-22T04:05:17.050Z,78.30
2019-04-22T04:07:48.345Z,78.10
2019-04-22T04:10:20.079Z,78.10
2019-04-22T04:12:59.942Z,78.60
2019-04-22T04:15:20.974Z,78.60
2019-04-22T04:17:44.461Z,78.20
2019-04-22T04:28:11.314Z,77.90
2019-04-22T04:32:52.389Z,78.00
2019-04-22T04:35:28.055Z,77.30
2019-04-22T04:40:21.310Z,77.40
2019-04-22T04:42:46.189Z,77.40
2019-04-22T04:50:14.318Z,77.00
2019-04-22T04:53:02.331Z,76.90
2019-04-22T04:55:28.899Z,76.70
2019-04-22T04:57:54.339Z,76.80
2019-04-22T05:00:46.073Z,76.10
2019-04-22T05:03:00.587Z,75.90
2019-04-22T05:05:16.789Z,75.30
2019-04-22T05:10:26.401Z,75.40
2019-04-22T05:20:26.602Z,74.90
2019-04-22T05:30:23.193Z,74.00
2019-04-22T05:32:43.039Z,73.80
2019-04-22T05:35:14.249Z,73.20
2019-04-22T05:37:45.759Z,73.10
2019-04-22T05:42:46.267Z,72.60
2019-04-22T05:45:17.344Z,72.40
2019-04-22T05:47:44.396Z,72.10
2019-04-22T05:50:16.941Z,71.70
2019-04-22T05:52:40.531Z,71.40
2019-04-22T05:55:14.334Z,70.50
2019-04-22T05:57:45.696Z,67.60
2019-04-22T06:00:23.082Z,64.20
2019-04-22T06:02:53.088Z,60.80
2019-04-22T06:05:19.686Z,59.00
2019-04-22T06:07:47.303Z,57.80
2019-04-22T06:10:39.429Z,56.40
2019-04-22T06:12:55.059Z,56.30
2019-04-22T06:15:23.371Z,54.80
2019-04-22T06:18:02.198Z,55.00
2019-04-22T06:20:28.626Z,54.40
2019-04-22T06:23:00.196Z,55.50
2019-04-22T06:25:39.514Z,55.50
2019-04-22T06:28:00.258Z,53.80
2019-04-22T06:30:43.477Z,54.30
2019-04-22T06:33:06.306Z,53.60
2019-04-22T06:35:43.883Z,53.30
2019-04-22T06:38:21.879Z,54.70
2019-04-22T06:43:06.809Z,54.20
2019-04-22T06:45:32.273Z,53.10
2019-04-22T06:50:33.958Z,51.90
2019-04-22T06:52:57.226Z,51.30
2019-04-22T06:57:59.919Z,50.50
2019-04-22T07:00:30.799Z,50.60
2019-04-22T07:03:21.071Z,51.00
2019-04-22T07:05:32.832Z,51.40
2019-04-22T07:08:04.149Z,50.30
2019-04-22T07:10:36.946Z,48.60
2019-04-22T07:13:01.503Z,47.80
2019-04-22T07:15:48.418Z,47.20
2019-04-22T07:18:04.577Z,46.10
2019-04-22T07:20:36.742Z,46.30
2019-04-22T07:23:09.641Z,46.20
2019-04-22T07:30:50.734Z,46.10
2019-04-22T07:33:32.469Z,44.10
2019-04-22T07:35:57.276Z,43.50
2019-04-22T07:38:20.808Z,43.40
2019-04-22T07:40:51.814Z,42.90
2019-04-22T07:43:19.572Z,40.20
2019-04-22T07:48:26.557Z,41.70
2019-04-22T07:51:05.567Z,40.70
2019-04-22T07:53:15.882Z,39.90
2019-04-22T07:55:50.821Z,39.10
2019-04-22T07:58:21.155Z,39.20
2019-04-22T08:00:43.776Z,40.90
2019-04-22T08:03:22.869Z,40.10
2019-04-22T08:05:58.587Z,40.20
2019-04-22T08:08:26.104Z,40.80
2019-04-22T08:10:48.551Z,41.00
2019-04-22T08:13:19.766Z,42.40
2019-04-22T08:15:56.914Z,42.50
2019-04-22T08:18:24.786Z,41.40
2019-04-22T08:20:52.066Z,39.80
2019-04-22T08:23:23.804Z,41.60
2019-04-22T08:25:47.586Z,41.90
2019-04-22T08:28:26.329Z,44.40
2019-04-22T08:30:56.657Z,42.30
2019-04-22T08:33:21.684Z,41.90
2019-04-22T08:38:34.227Z,43.90
2019-04-22T08:40:56.678Z,43.40
2019-04-22T08:43:33.402Z,42.50
2019-04-22T08:45:58.462Z,41.70
2019-04-22T08:48:23.096Z,42.20
2019-04-22T08:51:01.179Z,43.10
2019-04-22T08:53:37.549Z,44.50
2019-04-22T08:56:04.722Z,44.40
2019-04-22T08:58:28.109Z,46.50
2019-04-22T09:00:57.088Z,46.60
2019-04-22T09:03:25.942Z,47.40
2019-04-22T09:08:31.794Z,48.40
2019-04-22T09:11:00.012Z,49.70
2019-04-22T09:13:35.459Z,49.40
2019-04-22T09:16:02.273Z,50.00
2019-04-22T09:18:34.477Z,50.10
2019-04-22T09:21:08.908Z,50.40
2019-04-22T09:23:42.105Z,51.60
2019-04-22T09:26:03.502Z,53.80
2019-04-22T09:28:32.702Z,52.50
2019-04-22T09:31:02.145Z,52.70
2019-04-22T09:33:32.174Z,53.60
2019-04-22T09:36:09.410Z,54.80
2019-04-22T09:41:00.723Z,53.10
2019-04-22T09:43:40.091Z,52.30
2019-04-22T09:45:57.497Z,52.40
2019-04-22T09:48:37.564Z,52.60
2019-04-22T09:51:02.697Z,52.50
2019-04-22T09:53:41.340Z,53.10
2019-04-22T09:56:03.823Z,52.80
2019-04-22T09:58:32.058Z,52.90
2019-04-22T10:01:17.203Z,51.90
2019-04-22T10:03:36.782Z,52.30
2019-04-22T10:06:16.671Z,52.30
2019-04-22T10:08:40.766Z,53.10
2019-04-22T10:11:14.374Z,51.70
2019-04-22T10:13:45.167Z,52.10
2019-04-22T10:16:10.517Z,52.50
2019-04-22T10:18:42.025Z,51.30
2019-04-22T10:21:08.401Z,51.30
2019-04-22T10:23:41.212Z,49.80
2019-04-22T10:26:14.330Z,49.30
2019-04-22T10:28:44.787Z,48.30
2019-04-22T10:31:11.484Z,48.90
2019-04-22T10:33:33.878Z,48.30
2019-04-22T10:35:45.637Z,47.40
2019-04-22T10:38:14.412Z,46.70
2019-04-22T10:40:42.979Z,47.40
2019-04-22T10:43:11.624Z,47.70
2019-04-22T10:45:40.220Z,48.60
2019-04-22T10:48:10.470Z,46.60
2019-04-22T10:50:43.032Z,46.50
2019-04-22T10:53:13.323Z,45.50
2019-04-22T10:55:43.839Z,45.70
2019-04-22T10:58:14.836Z,46.00
2019-04-22T11:00:45.317Z,46.00
2019-04-22T11:03:16.085Z,45.10
2019-04-22T11:05:46.121Z,45.80
2019-04-22T11:08:23.101Z,45.00
2019-04-22T11:11:03.320Z,43.80
2019-04-22T11:13:15.885Z,43.10
2019-04-22T11:15:46.641Z,44.10
2019-04-22T11:18:15.811Z,44.10
2019-04-22T11:20:44.312Z,43.60
2019-04-22T11:23:14.406Z,42.60
2019-04-22T11:25:43.972Z,44.60
2019-04-22T11:28:13.684Z,42.70
2019-04-22T11:30:42.755Z,41.70
2019-04-22T11:33:12.123Z,42.60
2019-04-22T11:35:41.776Z,40.10
2019-04-22T11:38:10.834Z,40.30
2019-04-22T11:40:43.621Z,40.50
2019-04-22T11:43:10.277Z,40.30
2019-04-22T11:45:39.619Z,39.40
2019-04-22T11:48:09.151Z,40.60
2019-04-22T11:50:39.900Z,43.40
2019-04-22T11:53:08.947Z,43.60
2019-04-22T11:55:37.734Z,43.90
2019-04-22T11:58:06.782Z,44.70
2019-04-22T12:00:36.961Z,44.80
2019-04-22T12:03:07.083Z,42.90
2019-04-22T12:05:37.472Z,42.50
2019-04-22T12:08:07.375Z,42.30
2019-04-22T12:10:45.059Z,43.40
2019-04-22T12:13:06.368Z,40.80
2019-04-22T12:15:35.169Z,41.60
2019-04-22T12:18:04.311Z,37.70
2019-04-22T12:20:32.960Z,38.30
2019-04-22T12:23:03.131Z,40.50
2019-04-22T12:25:42.406Z,39.40
2019-04-22T12:28:03.248Z,41.50
2019-04-22T12:30:33.272Z,40.90
2019-04-22T12:33:02.334Z,42.00
2019-04-22T12:38:08.427Z,41.60
2019-04-22T12:40:43.379Z,40.20
2019-04-22T12:43:06.680Z,40.50
2019-04-22T12:45:36.418Z,41.10
2019-04-22T12:48:06.384Z,39.90
2019-04-22T12:50:38.446Z,39.70
2019-04-22T13:12:58.675Z,38.10
2019-04-22T13:15:28.885Z,38.50
2019-04-22T13:18:06.066Z,39.10
2019-04-22T13:20:28.194Z,40.50
2019-04-22T13:22:57.050Z,39.30
2019-04-22T13:25:28.338Z,38.60
2019-04-22T13:27:57.490Z,36.30
2019-04-22T13:30:28.525Z,36.10
2019-04-22T13:32:56.998Z,36.30
2019-04-22T13:35:26.166Z,34.50
2019-04-22T13:37:57.207Z,37.00
2019-04-22T13:40:25.868Z,36.20
2019-04-22T13:42:55.583Z,37.40
2019-04-22T13:45:25.590Z,37.40
2019-04-22T13:48:11.141Z,34.70
2019-04-22T13:53:37.658Z,35.30
2019-04-22T13:55:51.115Z,35.10
2019-04-22T13:58:08.459Z,34.40
2019-04-22T14:00:28.659Z,37.20
2019-04-22T14:02:58.732Z,36.10
2019-04-22T14:05:28.873Z,35.90
2019-04-22T14:07:59.355Z,36.20
2019-04-22T14:10:27.687Z,35.40
2019-04-22T14:12:57.046Z,35.70
2019-04-22T14:15:25.737Z,34.30
2019-04-22T14:17:54.682Z,33.90
2019-04-22T14:20:25.848Z,35.70
2019-04-22T14:22:54.757Z,34.20
2019-04-22T14:25:23.199Z,34.30
2019-04-22T14:28:00.232Z,35.00
2019-04-22T14:30:22.112Z,36.90
2019-04-22T14:32:51.218Z,34.80
2019-04-22T14:35:20.892Z,33.00
2019-04-22T14:37:50.250Z,35.40
2019-04-22T14:40:22.061Z,33.40
2019-04-22T14:43:10.911Z,32.90
2019-04-22T14:45:53.477Z,33.70
2019-04-22T14:48:10.965Z,36.20
2019-04-22T14:50:40.671Z,34.40
2019-04-22T14:53:08.211Z,34.50
2019-04-22T14:55:25.002Z,34.50
2019-04-22T14:57:51.096Z,34.30
2019-04-22T15:00:22.046Z,33.80
2019-04-22T15:02:51.889Z,35.10
2019-04-22T15:05:22.046Z,32.90
2019-04-22T15:07:50.515Z,33.30
2019-04-22T15:10:20.179Z,35.50
2019-04-22T15:12:52.723Z,35.90
2019-04-22T15:15:21.750Z,36.50
2019-04-22T15:17:52.399Z,36.60
2019-04-22T15:20:23.777Z,36.00
2019-04-22T15:22:52.716Z,36.20
2019-04-22T15:25:21.173Z,36.60
2019-04-22T15:27:51.080Z,37.70
2019-04-22T15:30:21.355Z,36.20
2019-04-22T15:32:49.918Z,35.60
2019-04-22T15:35:19.476Z,36.80
2019-04-22T15:37:48.997Z,35.50
2019-04-22T15:40:18.515Z,34.30
2019-04-22T15:42:47.067Z,36.00
2019-04-22T15:45:16.902Z,35.70
2019-04-22T15:47:46.267Z,36.70
2019-04-22T15:50:18.870Z,35.60
2019-04-22T15:52:51.536Z,36.00
2019-04-22T15:55:18.741Z,35.00
2019-04-22T15:57:47.927Z,35.30
2019-04-22T16:00:29.301Z,36.00
2019-04-22T16:02:47.694Z,34.00
2019-04-22T16:05:17.131Z,36.00
2019-04-22T16:07:45.825Z,36.50
2019-04-22T16:10:15.780Z,36.40
2019-04-22T16:12:56.247Z,37.30
2019-04-22T16:15:16.094Z,37.30
2019-04-22T16:17:44.754Z,37.20
2019-04-22T16:20:15.072Z,37.20
2019-04-22T16:22:45.295Z,37.60
2019-04-22T16:25:15.466Z,37.70
2019-04-22T16:27:44.710Z,38.00
2019-04-22T16:30:13.394Z,38.20
2019-04-22T16:32:43.351Z,37.80
2019-04-22T16:35:12.712Z,38.80
2019-04-22T16:37:41.311Z,38.00
2019-04-22T16:40:10.089Z,38.30
2019-04-22T16:42:45.828Z,40.10
2019-04-22T16:45:09.470Z,39.60
2019-04-22T16:47:37.927Z,40.70
2019-04-22T16:50:09.839Z,41.20
2019-04-22T16:52:39.729Z,40.50
2019-04-22T16:55:08.796Z,40.70
2019-04-22T16:57:37.810Z,39.60
2019-04-22T17:00:11.157Z,40.60
2019-04-22T17:02:47.960Z,41.90
2019-04-22T17:05:18.051Z,42.70
2019-04-22T17:07:47.821Z,43.00
2019-04-22T17:10:17.788Z,42.90
2019-04-22T17:12:54.308Z,43.00
2019-04-22T17:15:20.026Z,43.00
2019-04-22T17:17:47.441Z,43.30
2019-04-22T17:20:17.338Z,41.50
2019-04-22T17:22:47.214Z,41.40
2019-04-22T17:25:18.153Z,40.90
2019-04-22T17:27:47.513Z,40.60
2019-04-22T17:32:54.597Z,40.70
2019-04-22T17:35:24.215Z,39.60
2019-04-22T17:38:01.758Z,39.40
2019-04-22T17:40:38.895Z,39.10
2019-04-22T17:43:16.882Z,39.00
2019-04-22T17:45:49.253Z,39.20
2019-04-22T17:48:27.655Z,39.70
2019-04-22T17:51:03.549Z,39.30
2019-04-22T17:53:27.950Z,39.30
2019-04-22T17:56:00.167Z,39.80
2019-04-22T17:58:27.411Z,39.50
2019-04-22T18:00:56.096Z,39.70
2019-04-22T18:03:17.552Z,39.80
2019-04-22T18:05:43.700Z,40.60
2019-04-22T18:08:24.897Z,40.50
2019-04-22T18:10:54.284Z,40.60
2019-04-22T18:13:33.431Z,40.80
2019-04-22T18:15:54.804Z,42.10
2019-04-22T18:18:30.147Z,42.60
2019-04-22T18:20:52.976Z,44.00
2019-04-22T18:23:12.785Z,43.70
2019-04-22T18:26:00.401Z,43.90
2019-04-22T18:28:31.732Z,43.80
2019-04-22T18:30:52.993Z,44.60
2019-04-22T18:33:28.930Z,44.60
2019-04-22T18:35:55.326Z,45.40
2019-04-22T18:38:41.823Z,45.90
2019-04-22T18:40:54.764Z,46.40
2019-04-22T18:43:33.960Z,46.80
2019-04-22T18:46:05.271Z,47.60
2019-04-22T18:48:32.119Z,47.60
2019-04-22T18:51:09.631Z,47.90
2019-04-22T18:53:38.560Z,48.00
2019-04-22T18:56:03.906Z,48.30
2019-04-22T18:58:26.047Z,48.70
2019-04-22T19:00:48.263Z,48.60
2019-04-22T19:03:23.870Z,48.60
2019-04-22T19:06:20.086Z,48.80
2019-04-22T19:08:37.789Z,49.10
2019-04-22T19:11:21.022Z,49.30
2019-04-22T19:16:27.428Z,49.10
2019-04-22T19:18:43.834Z,49.30
2019-04-22T19:21:19.747Z,49.00
2019-04-22T19:23:41.513Z,48.70
2019-04-22T19:26:11.665Z,49.30
2019-04-22T19:28:42.295Z,49.40
2019-04-22T19:31:13.441Z,48.80
2019-04-22T19:33:39.936Z,49.00
2019-04-22T19:36:12.985Z,49.10
2019-04-22T19:38:28.586Z,48.90
2019-04-22T19:41:15.071Z,49.30
2019-04-22T19:43:39.032Z,49.40
2019-04-22T19:46:08.781Z,49.20
2019-04-22T19:48:45.503Z,49.20
2019-04-22T19:51:15.779Z,49.40
2019-04-22T19:53:45.211Z,49.10
2019-04-22T19:56:07.257Z,49.70
2019-04-22T19:58:37.435Z,49.80
2019-04-22T20:01:13.090Z,49.90
2019-04-22T20:03:50.843Z,50.10
2019-04-22T20:06:15.547Z,50.30
2019-04-22T20:08:49.072Z,50.20
2019-04-22T20:11:22.675Z,50.80
2019-04-22T20:13:49.681Z,50.80
2019-04-22T20:16:08.624Z,51.00
2019-04-22T20:18:52.348Z,51.30
2019-04-22T20:21:22.259Z,50.90
2019-04-22T20:23:39.332Z,51.50
2019-04-22T20:26:14.513Z,51.70
2019-04-22T20:28:51.279Z,51.90
2019-04-22T20:31:18.596Z,52.30
2019-04-22T20:33:59.631Z,52.40
2019-04-22T20:36:39.556Z,52.50
2019-04-22T20:38:49.443Z,52.80
2019-04-22T20:41:17.001Z,53.20
2019-04-22T20:43:54.684Z,53.30
2019-04-22T20:46:22.441Z,53.50
2019-04-22T20:48:55.001Z,53.40
2019-04-22T20:51:24.332Z,53.60
2019-04-22T20:53:56.465Z,53.70
2019-04-22T20:56:21.591Z,53.60
2019-04-22T20:58:53.629Z,53.50
2019-04-22T21:03:50.604Z,53.70
2019-04-22T21:06:33.406Z,54.00
2019-04-22T21:09:07.529Z,54.00
2019-04-22T21:11:31.108Z,54.60
2019-04-22T21:14:01.463Z,54.90
2019-04-22T21:16:34.599Z,55.00
2019-04-22T21:19:02.713Z,55.00
2019-04-22T21:21:38.711Z,54.60
2019-04-22T21:23:57.209Z,54.70
2019-04-22T21:26:36.415Z,54.60
2019-04-22T21:29:03.689Z,54.50
2019-04-22T21:31:38.852Z,55.20
2019-04-22T21:34:02.157Z,54.20
2019-04-22T21:36:35.165Z,54.10
2019-04-22T21:39:03.834Z,54.20
2019-04-22T21:41:30.387Z,54.20
2019-04-22T21:44:04.115Z,54.40
2019-04-22T21:46:35.695Z,53.90
2019-04-22T21:49:06.356Z,54.60
2019-04-22T21:51:48.056Z,54.50
2019-04-22T21:54:11.802Z,54.60
2019-04-22T21:59:15.703Z,54.00
2019-04-22T22:01:53.977Z,54.20
2019-04-22T22:04:14.219Z,54.00
2019-04-22T22:06:34.774Z,53.60
2019-04-22T22:09:15.259Z,54.10
2019-04-22T22:11:40.048Z,54.60
2019-04-22T22:14:11.787Z,54.60
2019-04-22T22:16:35.479Z,55.10
2019-04-22T22:19:11.711Z,54.90
2019-04-22T22:21:51.355Z,55.40
2019-04-22T22:24:14.864Z,55.20
2019-04-22T22:26:47.540Z,55.20
2019-04-22T22:29:26.841Z,55.00
2019-04-22T22:31:46.998Z,55.10
2019-04-22T22:34:16.663Z,55.30
2019-04-22T22:36:40.892Z,55.50
2019-04-22T22:39:07.531Z,54.90
2019-04-22T22:41:25.974Z,54.90
2019-04-22T22:44:03.194Z,55.00
2019-04-22T22:46:34.135Z,55.00
2019-04-22T22:49:18.647Z,55.00
2019-04-22T22:52:26.283Z,55.00
2019-04-22T22:54:20.965Z,54.60
2019-04-22T22:56:55.613Z,54.50
2019-04-22T22:59:18.229Z,54.30
2019-04-22T23:01:45.613Z,54.70
2019-04-22T23:04:26.376Z,54.50
2019-04-22T23:06:53.309Z,54.90
2019-04-22T23:09:19.294Z,55.10
2019-04-22T23:14:20.755Z,55.20
2019-04-22T23:16:37.592Z,55.30
2019-04-22T23:18:59.806Z,55.40
2019-04-22T23:21:35.177Z,55.70
2019-04-22T23:24:18.548Z,55.40
2019-04-22T23:26:45.640Z,56.10
2019-04-22T23:29:12.067Z,56.50
2019-04-22T23:31:46.822Z,56.60
2019-04-22T23:34:21.822Z,56.90
2019-04-22T23:36:55.983Z,56.90
2019-04-22T23:39:41.904Z,56.60
2019-04-22T23:42:06.429Z,56.80
2019-04-22T23:44:32.485Z,57.00
2019-04-22T23:46:58.595Z,57.20
2019-04-22T23:49:29.724Z,57.30
2019-04-22T23:52:16.295Z,57.50
2019-04-22T23:54:38.971Z,57.50
2019-04-22T23:57:01.641Z,57.70
2019-04-22T23:59:42.764Z,58.10
